Time;durP1;ratioP1;P1;durP2;ratioP2;P2;SDS_P1;SDS_P2;PMS_P1;PMS_P2;Temp;Humidity;BMP_temperature;BMP_pressure;BME280_temperature;BME280_humidity;BME280_pressure;Samples;Min_cycle;Max_cycle;Signal;HPM_P1;HPM_P2
2022/11/21 00:01:15;;;;;;;;;;;0.70;99.90;;;;;;5053479;28;19939;-69
2022/11/21 00:03:41;;;;;;;;;;;0.70;99.90;;;;;;5053405;28;20276;-69
2022/11/21 00:06:06;;;;;;;;;;;0.80;99.90;;;;;;5053675;28;19924;-69
2022/11/21 00:08:32;;;;;;;;;;;0.80;99.90;;;;;;5052170;28;19913;-69
2022/11/21 00:10:58;;;;;;;;;;;0.90;99.90;;;;;;5053336;28;20322;-69
2022/11/21 00:13:23;;;;;;;;;;;0.90;99.90;;;;;;5053344;28;20430;-69
2022/11/21 00:15:49;;;;;;;;;;;1.00;99.90;;;;;;5053291;28;20281;-69
2022/11/21 00:18:15;;;;;;;;;;;0.90;99.90;;;;;;5053264;28;20292;-69
2022/11/21 00:20:41;;;;;;;;;;;0.90;99.90;;;;;;5053338;28;20277;-69
2022/11/21 00:23:07;;;;;;;;;;;1.00;99.90;;;;;;5053207;28;20364;-69
2022/11/21 00:25:32;;;;;;;;;;;1.00;99.90;;;;;;5053523;28;19909;-69
2022/11/21 00:27:58;;;;;;;;;;;1.00;99.90;;;;;;5053127;28;20414;-69
2022/11/21 00:30:24;;;;;;;;;;;1.00;99.90;;;;;;5053199;28;19912;-69
2022/11/21 00:32:49;;;;;;;;;;;1.00;99.90;;;;;;5053205;28;19920;-69
2022/11/21 00:35:15;;;;;;;;;;;1.00;99.90;;;;;;5053131;28;19909;-69
2022/11/21 00:37:40;;;;;;;;;;;1.00;99.90;;;;;;5052164;28;19917;-68
2022/11/21 00:40:06;;;;;;;;;;;1.00;99.90;;;;;;5053068;28;19912;-69
2022/11/21 00:42:32;;;;;;;;;;;1.00;99.90;;;;;;5053375;28;20265;-68
2022/11/21 00:44:57;;;;;;;;;;;1.00;99.90;;;;;;5052981;28;19913;-69
2022/11/21 00:47:23;;;;;;;;;;;0.90;99.90;;;;;;5053222;28;19913;-69
2022/11/21 00:49:48;;;;;;;;;;;1.00;99.90;;;;;;5053001;28;20003;-69
2022/11/21 00:52:15;;;;;;;;;;;1.00;99.90;;;;;;5051705;28;20081;-69
2022/11/21 00:54:40;;;;;;;;;;;0.90;99.90;;;;;;5053247;28;19913;-69
2022/11/21 00:57:06;;;;;;;;;;;1.00;99.90;;;;;;5056363;28;19919;-69
2022/11/21 00:59:32;;;;;;;;;;;1.00;99.90;;;;;;5056598;28;19912;-69
2022/11/21 01:01:57;;;;;;;;;;;1.00;99.90;;;;;;5056549;28;20307;-69
2022/11/21 01:04:23;;;;;;;;;;;1.00;99.90;;;;;;5057007;28;19916;-69
2022/11/21 01:06:48;;;;;;;;;;;1.00;99.90;;;;;;5056469;28;20364;-69
2022/11/21 01:09:14;;;;;;;;;;;1.10;99.90;;;;;;5056342;28;19913;-68
2022/11/21 01:11:40;;;;;;;;;;;1.10;99.90;;;;;;5056660;28;19912;-69
2022/11/21 01:14:05;;;;;;;;;;;1.10;99.90;;;;;;5056294;28;19920;-69
2022/11/21 01:16:31;;;;;;;;;;;1.10;99.90;;;;;;5056501;28;19909;-69
2022/11/21 01:18:57;;;;;;;;;;;1.20;99.90;;;;;;5056744;28;19916;-69
2022/11/21 01:21:29;;;;;;;;;;;1.20;99.90;;;;;;5056504;28;19952;-68
2022/11/21 01:23:55;;;;;;;;;;;1.20;99.90;;;;;;5056071;28;19920;-68
2022/11/21 01:26:22;;;;;;;;;;;1.10;99.90;;;;;;5056395;28;19919;-69
2022/11/21 01:28:47;;;;;;;;;;;1.10;99.90;;;;;;5056057;28;19908;-68
2022/11/21 01:31:17;;;;;;;;;;;1.10;99.90;;;;;;5055974;28;19916;-68
2022/11/21 01:33:44;;;;;;;;;;;1.10;99.90;;;;;;5055956;28;20261;-68
2022/11/21 01:36:12;;;;;;;;;;;1.10;99.90;;;;;;5056204;28;20357;-69
2022/11/21 01:38:39;;;;;;;;;;;1.00;99.90;;;;;;5055808;28;19947;-69
2022/11/21 01:41:04;;;;;;;;;;;1.00;99.90;;;;;;5056141;28;19944;-68
2022/11/21 01:43:30;;;;;;;;;;;1.00;99.90;;;;;;5056034;28;20305;-69
2022/11/21 01:45:57;;;;;;;;;;;1.00;99.90;;;;;;5055989;28;20257;-68
2022/11/21 01:48:26;;;;;;;;;;;1.00;99.90;;;;;;5055642;28;20345;-69
2022/11/21 01:50:52;;;;;;;;;;;1.00;99.90;;;;;;5055624;28;19908;-69
2022/11/21 01:53:18;;;;;;;;;;;1.10;99.90;;;;;;5055537;28;20357;-69
2022/11/21 01:55:44;;;;;;;;;;;1.10;99.90;;;;;;5055552;28;19952;-69
2022/11/21 01:58:09;;;;;;;;;;;1.10;99.90;;;;;;5055696;28;19975;-69
2022/11/21 02:00:37;;;;;;;;;;;1.10;99.90;;;;;;5055449;28;20011;-69
2022/11/21 02:03:06;;;;;;;;;;;1.20;99.90;;;;;;5055588;28;19909;-69
2022/11/21 02:05:34;;;;;;;;;;;1.20;99.90;;;;;;5056183;28;20269;-69
2022/11/21 02:08:05;;;;;;;;;;;1.20;99.90;;;;;;5054597;28;20365;-70
2022/11/21 02:10:31;;;;;;;;;;;1.20;99.90;;;;;;5055980;28;19948;-70
2022/11/21 02:12:57;;;;;;;;;;;1.20;99.90;;;;;;5055258;28;20313;-70
2022/11/21 02:15:24;;;;;;;;;;;1.20;99.90;;;;;;5053897;28;19919;-70
2022/11/21 02:17:50;;;;;;;;;;;1.20;99.90;;;;;;5055088;28;19916;-70
2022/11/21 02:20:17;;;;;;;;;;;1.20;99.90;;;;;;5055330;28;20020;-70
2022/11/21 02:22:51;;;;;;;;;;;1.20;99.90;;;;;;5055067;28;19908;-70
2022/11/21 02:25:19;;;;;;;;;;;1.20;99.90;;;;;;5054874;28;19963;-70
2022/11/21 02:27:45;;;;;;;;;;;1.20;99.90;;;;;;5055097;28;19909;-70
2022/11/21 02:30:11;;;;;;;;;;;1.20;99.90;;;;;;5055461;28;19940;-70
2022/11/21 02:32:38;;;;;;;;;;;1.20;99.90;;;;;;5054904;28;20367;-70
2022/11/21 02:35:04;;;;;;;;;;;1.20;99.90;;;;;;5054813;28;20007;-70
2022/11/21 02:37:30;;;;;;;;;;;1.20;99.90;;;;;;5054920;28;19959;-70
2022/11/21 02:39:57;;;;;;;;;;;1.20;99.90;;;;;;5055027;28;20283;-70
2022/11/21 02:42:35;;;;;;;;;;;1.20;99.90;;;;;;5054684;28;19915;-70
2022/11/21 02:45:17;;;;;;;;;;;1.20;99.90;;;;;;5054547;28;19917;-70
2022/11/21 02:47:44;;;;;;;;;;;1.30;99.90;;;;;;5054552;28;19908;-70
2022/11/21 02:50:14;;;;;;;;;;;1.30;99.90;;;;;;5054524;28;19943;-70
2022/11/21 02:52:39;;;;;;;;;;;1.40;99.90;;;;;;5054569;28;20357;-70
2022/11/21 02:55:05;;;;;;;;;;;1.40;99.90;;;;;;5054715;28;19915;-70
2022/11/21 02:57:31;;;;;;;;;;;1.40;99.90;;;;;;5054886;28;19999;-70
2022/11/21 02:59:57;;;;;;;;;;;1.40;99.90;;;;;;5054600;28;20371;-70
2022/11/21 03:02:22;;;;;;;;;;;1.40;99.90;;;;;;5053376;28;19912;-70
2022/11/21 03:04:48;;;;;;;;;;;1.40;99.90;;;;;;5054166;28;19920;-70
2022/11/21 03:07:13;;;;;;;;;;;1.40;99.90;;;;;;5054377;28;19913;-70
2022/11/21 03:09:39;;;;;;;;;;;1.40;99.90;;;;;;5054163;28;19939;-70
2022/11/21 03:12:08;;;;;;;;;;;1.40;99.90;;;;;;5054359;28;19939;-70
2022/11/21 03:14:34;;;;;;;;;;;1.30;99.90;;;;;;5052797;28;19916;-71
2022/11/21 03:17:00;;;;;;;;;;;1.30;99.90;;;;;;5052715;28;19962;-70
2022/11/21 03:19:25;;;;;;;;;;;1.20;99.90;;;;;;5052837;28;19908;-70
2022/11/21 03:21:51;;;;;;;;;;;1.20;99.90;;;;;;5053900;28;19909;-70
2022/11/21 03:24:16;;;;;;;;;;;1.10;99.90;;;;;;5053814;28;20331;-70
2022/11/21 03:26:42;;;;;;;;;;;1.20;99.90;;;;;;5054451;28;20361;-70
2022/11/21 03:29:08;;;;;;;;;;;1.20;99.90;;;;;;5053768;28;20365;-70
2022/11/21 03:31:33;;;;;;;;;;;1.20;99.90;;;;;;5054143;28;19947;-70
2022/11/21 03:34:02;;;;;;;;;;;1.20;99.90;;;;;;5054073;28;20021;-70
2022/11/21 03:36:27;;;;;;;;;;;1.10;99.90;;;;;;5053730;28;20007;-70
2022/11/21 03:38:56;;;;;;;;;;;1.20;99.90;;;;;;5053748;28;19960;-70
2022/11/21 03:41:28;;;;;;;;;;;1.10;99.90;;;;;;5052413;28;20292;-70
2022/11/21 03:44:02;;;;;;;;;;;1.10;99.90;;;;;;5053912;28;19913;-70
2022/11/21 03:46:28;;;;;;;;;;;1.20;99.90;;;;;;5053895;28;19915;-70
2022/11/21 03:48:54;;;;;;;;;;;1.20;99.90;;;;;;5053526;28;19908;-70
2022/11/21 03:51:19;;;;;;;;;;;1.20;99.90;;;;;;5053437;28;20285;-70
2022/11/21 03:53:45;;;;;;;;;;;1.20;99.90;;;;;;5053794;28;19994;-69
2022/11/21 03:56:11;;;;;;;;;;;1.20;99.90;;;;;;5052220;28;20364;-70
2022/11/21 03:58:36;;;;;;;;;;;1.20;99.90;;;;;;5053489;28;19909;-70
2022/11/21 04:01:02;;;;;;;;;;;1.20;99.90;;;;;;5053985;28;19943;-70
2022/11/21 04:03:27;;;;;;;;;;;1.20;99.90;;;;;;5053420;28;20007;-70
2022/11/21 04:05:53;;;;;;;;;;;1.10;99.90;;;;;;5053449;28;19915;-70
2022/11/21 04:08:19;;;;;;;;;;;1.10;99.90;;;;;;5053327;28;19909;-70
2022/11/21 04:10:48;;;;;;;;;;;1.10;99.90;;;;;;5052176;28;20369;-70
2022/11/21 04:13:14;;;;;;;;;;;1.00;99.90;;;;;;5053377;28;20369;-70
2022/11/21 04:15:43;;;;;;;;;;;0.90;99.90;;;;;;5053620;28;19919;-70
2022/11/21 04:18:08;;;;;;;;;;;0.90;99.90;;;;;;5053604;28;19909;-70
2022/11/21 04:20:34;;;;;;;;;;;0.90;99.90;;;;;;5053828;28;19920;-70
2022/11/21 04:22:59;;;;;;;;;;;0.90;99.90;;;;;;5053221;28;19913;-70
2022/11/21 04:25:25;;;;;;;;;;;0.90;99.90;;;;;;5051894;28;19913;-70
2022/11/21 04:27:51;;;;;;;;;;;0.90;99.90;;;;;;5053149;28;20006;-70
2022/11/21 04:30:16;;;;;;;;;;;0.80;99.90;;;;;;5053956;28;19913;-70
2022/11/21 04:32:43;;;;;;;;;;;0.80;99.90;;;;;;5057435;28;19928;-70
2022/11/21 04:35:08;;;;;;;;;;;0.80;99.90;;;;;;5057397;28;19958;-70
2022/11/21 04:37:34;;;;;;;;;;;0.60;99.90;;;;;;5057066;28;19917;-70
2022/11/21 04:39:59;;;;;;;;;;;0.60;99.90;;;;;;5057348;28;20364;-70
2022/11/21 04:42:25;;;;;;;;;;;0.60;99.90;;;;;;5055770;28;19913;-70
2022/11/21 04:44:51;;;;;;;;;;;0.60;99.90;;;;;;5057165;28;19917;-70
2022/11/21 04:47:16;;;;;;;;;;;0.60;99.90;;;;;;5057339;28;19912;-70
2022/11/21 04:49:42;;;;;;;;;;;0.60;99.90;;;;;;5056812;28;19959;-70
2022/11/21 04:52:07;;;;;;;;;;;0.60;99.90;;;;;;5056631;28;20288;-70
2022/11/21 04:54:33;;;;;;;;;;;0.50;99.90;;;;;;5056745;28;20391;-70
2022/11/21 04:56:58;;;;;;;;;;;0.50;99.90;;;;;;5056872;28;19924;-70
2022/11/21 04:59:24;;;;;;;;;;;0.50;99.90;;;;;;5056985;28;19913;-70
2022/11/21 05:01:49;;;;;;;;;;;0.40;99.90;;;;;;5056651;28;19956;-70
2022/11/21 05:04:15;;;;;;;;;;;0.30;99.90;;;;;;5056704;28;19916;-70
2022/11/21 05:06:40;;;;;;;;;;;0.30;99.90;;;;;;5057017;28;20009;-70
2022/11/21 05:09:06;;;;;;;;;;;0.30;99.90;;;;;;5055468;28;19963;-70
2022/11/21 05:14:16;;;;;;;;;;;0.20;99.90;;;;;;5056722;28;19919;-70
2022/11/21 05:16:41;;;;;;;;;;;0.10;99.90;;;;;;5056293;28;19912;-70
2022/11/21 05:19:08;;;;;;;;;;;0.10;99.90;;;;;;5038422;28;19967;-70
2022/11/21 05:21:33;;;;;;;;;;;0.10;99.90;;;;;;5054951;28;19910;-70
2022/11/21 05:23:59;;;;;;;;;;;0.10;99.90;;;;;;5056277;28;19923;-70
2022/11/21 05:26:24;;;;;;;;;;;0.00;99.90;;;;;;5056087;28;19916;-70
2022/11/21 05:28:50;;;;;;;;;;;0.10;99.90;;;;;;5056051;28;20433;-70
2022/11/21 05:31:15;;;;;;;;;;;0.10;99.90;;;;;;5054651;28;19912;-70
2022/11/21 05:33:41;;;;;;;;;;;0.10;99.90;;;;;;5056235;28;19919;-70
2022/11/21 05:36:06;;;;;;;;;;;0.20;99.90;;;;;;5056955;28;20007;-70
2022/11/21 05:38:32;;;;;;;;;;;0.20;99.90;;;;;;5055780;28;20015;-70
2022/11/21 05:40:57;;;;;;;;;;;0.20;99.90;;;;;;5056576;28;19943;-70
2022/11/21 05:46:07;;;;;;;;;;;0.30;99.90;;;;;;5055343;28;19920;-70
2022/11/21 05:48:35;;;;;;;;;;;0.30;99.90;;;;;;5054357;28;20281;-70
2022/11/21 05:51:01;;;;;;;;;;;0.30;99.90;;;;;;5055720;28;20380;-70
2022/11/21 05:53:26;;;;;;;;;;;0.40;99.90;;;;;;5055917;28;19935;-72
2022/11/21 05:55:52;;;;;;;;;;;0.40;99.90;;;;;;5055861;28;19913;-72
2022/11/21 05:58:17;;;;;;;;;;;0.40;99.90;;;;;;5055903;28;20400;-72
2022/11/21 06:00:43;;;;;;;;;;;0.50;99.90;;;;;;5055495;28;19913;-72
2022/11/21 06:03:29;;;;;;;;;;;0.50;99.90;;;;;;5055391;28;19951;-72
2022/11/21 06:06:02;;;;;;;;;;;0.60;99.90;;;;;;5055696;28;19995;-72
2022/11/21 06:08:28;;;;;;;;;;;0.60;99.90;;;;;;5055294;28;19917;-72
2022/11/21 06:10:54;;;;;;;;;;;0.60;99.90;;;;;;5055284;28;19912;-72
2022/11/21 06:13:22;;;;;;;;;;;0.60;99.90;;;;;;5053960;28;20020;-72
2022/11/21 06:15:58;;;;;;;;;;;0.60;99.90;;;;;;5055445;28;19909;-72
2022/11/21 06:18:23;;;;;;;;;;;0.70;99.90;;;;;;5055133;28;19909;-72
2022/11/21 06:20:49;;;;;;;;;;;0.70;99.90;;;;;;5055070;28;19920;-72
2022/11/21 06:23:15;;;;;;;;;;;0.70;99.90;;;;;;5054969;28;19992;-72
2022/11/21 06:25:42;;;;;;;;;;;0.70;99.90;;;;;;5054965;28;20007;-72
2022/11/21 06:28:07;;;;;;;;;;;0.70;99.90;;;;;;5054882;28;19916;-72
2022/11/21 06:30:33;;;;;;;;;;;0.70;99.90;;;;;;5054956;28;19913;-72
2022/11/21 06:32:59;;;;;;;;;;;0.70;99.90;;;;;;5054858;28;19909;-72
2022/11/21 06:35:24;;;;;;;;;;;0.60;99.90;;;;;;5054780;28;19908;-72
2022/11/21 06:37:50;;;;;;;;;;;0.60;99.90;;;;;;5036804;28;20089;-72
2022/11/21 06:40:15;;;;;;;;;;;0.70;99.90;;;;;;5055001;28;20265;-72
2022/11/21 06:42:41;;;;;;;;;;;0.70;99.90;;;;;;5053349;28;20432;-72
2022/11/21 06:45:07;;;;;;;;;;;0.70;99.90;;;;;;5054795;28;19920;-72
2022/11/21 06:47:33;;;;;;;;;;;0.70;99.90;;;;;;5054528;28;19966;-72
2022/11/21 06:49:59;;;;;;;;;;;0.70;99.90;;;;;;5053257;28;20284;-72
2022/11/21 06:52:25;;;;;;;;;;;0.70;99.90;;;;;;5054730;28;20379;-72
2022/11/21 06:54:50;;;;;;;;;;;0.70;99.90;;;;;;5054258;28;19985;-72
2022/11/21 06:57:16;;;;;;;;;;;0.70;99.90;;;;;;5053104;28;19913;-72
2022/11/21 06:59:41;;;;;;;;;;;0.70;99.90;;;;;;5052940;28;20015;-72
2022/11/21 07:02:11;;;;;;;;;;;0.70;99.90;;;;;;5052891;28;19909;-72
2022/11/21 07:04:36;;;;;;;;;;;0.80;99.90;;;;;;5054131;28;20340;-72
2022/11/21 07:07:02;;;;;;;;;;;0.80;99.90;;;;;;5052935;28;19919;-72
2022/11/21 07:09:28;;;;;;;;;;;0.90;99.90;;;;;;5054342;28;20391;-72
2022/11/21 07:11:53;;;;;;;;;;;0.90;99.90;;;;;;5054146;28;20008;-72
2022/11/21 07:14:19;;;;;;;;;;;0.90;99.90;;;;;;5054325;28;19927;-73
2022/11/21 07:16:44;;;;;;;;;;;0.90;99.90;;;;;;5054044;28;19913;-73
2022/11/21 07:19:10;;;;;;;;;;;0.90;99.90;;;;;;5053945;28;19917;-72
2022/11/21 07:21:36;;;;;;;;;;;0.90;99.90;;;;;;5054264;28;20250;-72
2022/11/21 07:24:01;;;;;;;;;;;0.90;99.90;;;;;;5054073;28;19919;-72
2022/11/21 07:26:27;;;;;;;;;;;1.00;99.90;;;;;;5054172;28;19908;-73
2022/11/21 07:28:53;;;;;;;;;;;1.00;99.90;;;;;;5052479;28;19909;-73
2022/11/21 07:31:18;;;;;;;;;;;1.00;99.90;;;;;;5052473;28;19913;-72
2022/11/21 07:33:45;;;;;;;;;;;1.00;99.90;;;;;;5053769;28;20003;-72
2022/11/21 07:36:11;;;;;;;;;;;1.00;99.90;;;;;;5052667;28;19943;-73
2022/11/21 07:38:37;;;;;;;;;;;1.00;99.90;;;;;;5052800;28;19913;-73
2022/11/21 07:41:02;;;;;;;;;;;1.00;99.90;;;;;;5053635;28;20018;-73
2022/11/21 07:43:28;;;;;;;;;;;1.00;99.90;;;;;;5052274;28;20258;-73
2022/11/21 07:45:54;;;;;;;;;;;1.00;99.90;;;;;;5052322;28;19909;-73
2022/11/21 07:48:20;;;;;;;;;;;1.00;99.90;;;;;;5053606;28;20395;-72
2022/11/21 07:50:46;;;;;;;;;;;1.00;99.90;;;;;;5053888;28;20011;-73
2022/11/21 07:53:12;;;;;;;;;;;1.00;99.90;;;;;;5053362;28;20003;-73
2022/11/21 07:55:37;;;;;;;;;;;1.00;99.90;;;;;;5052250;28;19908;-73
2022/11/21 07:58:07;;;;;;;;;;;1.00;99.90;;;;;;5052390;28;20325;-73
2022/11/21 08:00:34;;;;;;;;;;;1.00;99.90;;;;;;5053418;28;19931;-73
2022/11/21 08:03:00;;;;;;;;;;;1.00;99.90;;;;;;5053724;28;19962;-73
2022/11/21 08:05:26;;;;;;;;;;;1.00;99.90;;;;;;5054111;28;19913;-73
2022/11/21 08:07:51;;;;;;;;;;;1.00;99.90;;;;;;5057476;28;20003;-73
2022/11/21 08:10:17;;;;;;;;;;;1.00;99.90;;;;;;5057523;28;20331;-73
2022/11/21 08:12:43;;;;;;;;;;;1.00;99.90;;;;;;5056555;28;19913;-73
2022/11/21 08:15:09;;;;;;;;;;;1.00;99.90;;;;;;5056187;28;20023;-73
2022/11/21 08:17:35;;;;;;;;;;;1.10;99.90;;;;;;5057584;28;20376;-73
2022/11/21 08:20:00;;;;;;;;;;;1.10;99.90;;;;;;5057865;28;19960;-72
2022/11/21 08:22:26;;;;;;;;;;;1.10;99.90;;;;;;5056406;28;19920;-72
2022/11/21 08:24:54;;;;;;;;;;;1.10;99.90;;;;;;5057295;28;19916;-73
2022/11/21 08:27:21;;;;;;;;;;;1.10;99.90;;;;;;5055959;28;20392;-74
2022/11/21 08:29:46;;;;;;;;;;;1.10;99.90;;;;;;5055946;28;19920;-74
2022/11/21 08:32:12;;;;;;;;;;;1.10;99.90;;;;;;5039194;28;20288;-73
2022/11/21 08:34:38;;;;;;;;;;;1.10;99.90;;;;;;5057081;28;19992;-73
2022/11/21 08:37:03;;;;;;;;;;;1.10;99.90;;;;;;5056940;28;19963;-73
2022/11/21 08:39:32;;;;;;;;;;;1.10;99.90;;;;;;5057219;28;19909;-73
2022/11/21 08:42:03;;;;;;;;;;;1.10;99.90;;;;;;5039414;28;19913;-74
2022/11/21 08:44:29;;;;;;;;;;;1.20;99.90;;;;;;5055519;28;20015;-74
2022/11/21 08:46:55;;;;;;;;;;;1.20;99.90;;;;;;5056993;28;19948;-73
2022/11/21 08:49:21;;;;;;;;;;;1.20;99.90;;;;;;5055484;28;19913;-74
2022/11/21 08:51:48;;;;;;;;;;;1.20;99.90;;;;;;5055331;28;19944;-73
2022/11/21 08:54:14;;;;;;;;;;;1.20;99.90;;;;;;5056995;28;20311;-73
2022/11/21 08:56:40;;;;;;;;;;;1.10;99.90;;;;;;5055368;28;19913;-73
2022/11/21 08:59:06;;;;;;;;;;;1.10;99.90;;;;;;5056549;28;19920;-73
2022/11/21 09:01:32;;;;;;;;;;;1.00;99.90;;;;;;5056605;28;19913;-73
2022/11/21 09:03:57;;;;;;;;;;;1.00;99.90;;;;;;5055116;28;19912;-73
2022/11/21 09:06:23;;;;;;;;;;;1.10;99.90;;;;;;5056727;28;19913;-73
2022/11/21 09:08:48;;;;;;;;;;;1.10;99.90;;;;;;5055137;28;19913;-73
2022/11/21 09:11:14;;;;;;;;;;;1.20;99.90;;;;;;5056565;28;19919;-73
2022/11/21 09:13:39;;;;;;;;;;;1.30;99.90;;;;;;5055185;28;19913;-73
2022/11/21 09:18:52;;;;;;;;;;;1.40;99.90;;;;;;5056475;28;20123;-73
2022/11/21 09:21:18;;;;;;;;;;;1.40;99.90;;;;;;5056428;28;19944;-73
2022/11/21 09:23:44;;;;;;;;;;;1.50;99.90;;;;;;5054829;28;19917;-72
2022/11/21 09:26:10;;;;;;;;;;;1.60;99.90;;;;;;5056047;28;20274;-72
2022/11/21 09:28:36;;;;;;;;;;;1.60;99.90;;;;;;5055938;28;19919;-72
2022/11/21 09:31:02;;;;;;;;;;;1.60;99.90;;;;;;5056293;28;19909;-72
2022/11/21 09:33:27;;;;;;;;;;;1.70;99.90;;;;;;5055995;28;19909;-72
2022/11/21 09:35:53;;;;;;;;;;;1.70;99.90;;;;;;5055941;28;20327;-72
2022/11/21 09:38:18;;;;;;;;;;;1.70;99.90;;;;;;5055971;28;20377;-72
2022/11/21 09:40:45;;;;;;;;;;;1.70;99.90;;;;;;5054609;28;19908;-73
2022/11/21 09:43:19;;;;;;;;;;;1.70;99.90;;;;;;5055723;28;19920;-72
2022/11/21 09:45:47;;;;;;;;;;;1.70;99.90;;;;;;5056017;28;19909;-72
2022/11/21 09:48:14;;;;;;;;;;;1.70;99.90;;;;;;5055659;28;20014;-72
2022/11/21 09:50:49;;;;;;;;;;;1.70;99.90;;;;;;5054379;28;20265;-72
2022/11/21 09:53:14;;;;;;;;;;;1.70;99.90;;;;;;5055505;28;19917;-72
2022/11/21 09:55:48;;;;;;;;;;;1.70;99.90;;;;;;5055608;28;19908;-72
2022/11/21 09:58:32;;;;;;;;;;;1.80;99.90;;;;;;5055575;28;19935;-72
2022/11/21 10:00:58;;;;;;;;;;;1.70;99.90;;;;;;5054444;28;19916;-72
2022/11/21 10:03:26;;;;;;;;;;;1.70;99.90;;;;;;5055877;28;19913;-72
2022/11/21 10:05:57;;;;;;;;;;;1.70;99.90;;;;;;5055392;28;19999;-72
2022/11/21 10:08:37;;;;;;;;;;;1.60;99.90;;;;;;5055256;28;19916;-72
2022/11/21 10:11:14;;;;;;;;;;;1.70;99.90;;;;;;5053989;28;19913;-73
2022/11/21 10:13:45;;;;;;;;;;;1.70;99.90;;;;;;5055565;28;20403;-73
2022/11/21 10:16:33;;;;;;;;;;;1.80;99.90;;;;;;5056049;28;20248;-73
2022/11/21 10:19:03;;;;;;;;;;;1.80;99.90;;;;;;5044222;28;19908;-73
2022/11/21 10:21:29;;;;;;;;;;;1.80;99.90;;;;;;5055071;28;19952;-73
2022/11/21 10:23:57;;;;;;;;;;;1.80;99.90;;;;;;5054928;28;20027;-73
2022/11/21 10:26:39;;;;;;;;;;;1.80;99.90;;;;;;5054964;28;20426;-72
2022/11/21 10:29:23;;;;;;;;;;;1.90;99.90;;;;;;5052815;28;19915;-73
2022/11/21 10:31:49;;;;;;;;;;;1.90;99.90;;;;;;5054908;28;20365;-72
2022/11/21 10:34:20;;;;;;;;;;;2.00;99.90;;;;;;5036937;28;20373;-72
2022/11/21 10:36:57;;;;;;;;;;;2.00;99.90;;;;;;5054701;28;19988;-72
2022/11/21 10:39:35;;;;;;;;;;;2.00;99.90;;;;;;5053431;28;20007;-72
2022/11/21 10:42:14;;;;;;;;;;;2.00;99.90;;;;;;5054914;28;19916;-73
2022/11/21 10:47:30;;;;;;;;;;;2.10;99.90;;;;;;5054833;28;19920;-73
2022/11/21 10:50:01;;;;;;;;;;;2.20;99.90;;;;;;5054509;28;19915;-73
2022/11/21 10:52:29;;;;;;;;;;;2.20;99.90;;;;;;5053079;28;19917;-73
2022/11/21 10:55:01;;;;;;;;;;;2.20;99.90;;;;;;5054701;28;19931;-73
2022/11/21 10:57:28;;;;;;;;;;;2.20;99.90;;;;;;5054323;28;19908;-73
2022/11/21 10:59:57;;;;;;;;;;;2.20;99.90;;;;;;5054590;28;19909;-74
2022/11/21 11:02:24;;;;;;;;;;;2.20;99.90;;;;;;5054291;28;20095;-74
2022/11/21 11:05:09;;;;;;;;;;;2.20;99.90;;;;;;5054149;28;19913;-74
2022/11/21 11:07:35;;;;;;;;;;;2.30;99.90;;;;;;5054058;28;20050;-74
2022/11/21 11:10:19;;;;;;;;;;;2.30;99.90;;;;;;5053036;28;20323;-74
2022/11/21 11:15:31;;;;;;;;;;;2.40;99.90;;;;;;5054711;28;19922;-74
2022/11/21 11:17:58;;;;;;;;;;;2.40;99.90;;;;;;5052776;28;19913;-74
2022/11/21 11:20:27;;;;;;;;;;;2.40;99.90;;;;;;5054024;28;19947;-74
2022/11/21 11:22:52;;;;;;;;;;;2.40;99.90;;;;;;5053894;28;19909;-75
2022/11/21 11:25:18;;;;;;;;;;;2.40;99.90;;;;;;5053862;28;20331;-75
2022/11/21 11:27:43;;;;;;;;;;;2.40;99.90;;;;;;5053771;28;19913;-75
2022/11/21 11:30:13;;;;;;;;;;;2.40;99.90;;;;;;5054384;28;19909;-75
2022/11/21 11:32:40;;;;;;;;;;;2.40;99.90;;;;;;5053731;28;19909;-75
2022/11/21 11:35:11;;;;;;;;;;;2.30;99.90;;;;;;5054015;28;19913;-75
2022/11/21 11:37:40;;;;;;;;;;;2.30;99.90;;;;;;5052390;28;20327;-76
2022/11/21 11:40:18;;;;;;;;;;;2.40;99.90;;;;;;5054110;28;19913;-76
2022/11/21 11:48:35;;;;;;;;;;;2.60;99.90;;;;;;5054024;28;20354;-76
2022/11/21 11:51:02;;;;;;;;;;;2.70;99.90;;;;;;5053761;28;19924;-76
2022/11/21 11:53:31;;;;;;;;;;;2.80;99.90;;;;;;5052299;28;19924;-76
2022/11/21 11:55:59;;;;;;;;;;;2.80;99.90;;;;;;5053526;28;19999;-76
2022/11/21 11:58:43;;;;;;;;;;;2.90;99.90;;;;;;5053443;28;19913;-76
2022/11/21 12:01:11;;;;;;;;;;;2.80;99.90;;;;;;5053467;28;19909;-76
2022/11/21 12:03:42;;;;;;;;;;;2.90;99.90;;;;;;5053378;28;20015;-76
2022/11/21 12:06:07;;;;;;;;;;;2.90;99.90;;;;;;5053700;28;19991;-76
2022/11/21 12:08:52;;;;;;;;;;;2.90;99.90;;;;;;5053416;28;20293;-76
2022/11/21 12:17:11;;;;;;;;;;;3.00;99.90;;;;;;5053560;28;19924;-74
2022/11/21 12:19:38;;;;;;;;;;;2.90;99.90;;;;;;5053338;28;19920;-75
2022/11/21 12:22:05;;;;;;;;;;;2.90;99.90;;;;;;5053249;28;20249;-74
2022/11/21 12:24:32;;;;;;;;;;;2.90;99.90;;;;;;5053159;28;20398;-74
2022/11/21 12:27:20;;;;;;;;;;;2.90;99.90;;;;;;5053735;28;19955;-75
2022/11/21 12:29:58;;;;;;;;;;;3.00;99.90;;;;;;5042671;28;19909;-75
2022/11/21 12:32:33;;;;;;;;;;;3.10;99.90;;;;;;5053163;28;19909;-75
2022/11/21 12:35:05;;;;;;;;;;;3.20;99.90;;;;;;5053425;28;19936;-75
2022/11/21 12:37:36;;;;;;;;;;;3.30;99.90;;;;;;5051755;28;19908;-76
2022/11/21 12:40:09;;;;;;;;;;;3.40;99.90;;;;;;5053346;28;19908;-76
2022/11/21 12:42:50;;;;;;;;;;;3.40;99.90;;;;;;5053356;28;19913;-76
2022/11/21 12:45:27;;;;;;;;;;;3.40;99.90;;;;;;5053268;28;19967;-76
2022/11/21 12:56:48;;;;;;;;;;;3.60;99.90;;;;;;5037087;28;19931;-76
2022/11/21 12:59:14;;;;;;;;;;;3.60;99.90;;;;;;5036735;28;20319;-76
2022/11/21 13:01:48;;;;;;;;;;;3.60;99.90;;;;;;5046838;28;20001;-76
2022/11/21 13:04:21;;;;;;;;;;;3.70;99.90;;;;;;5042077;28;20292;-76
2022/11/21 13:06:48;;;;;;;;;;;3.70;99.90;;;;;;5053347;28;19913;-76
2022/11/21 13:09:19;;;;;;;;;;;3.70;99.90;;;;;;5056377;28;19999;-76
2022/11/21 13:11:59;;;;;;;;;;;3.60;99.90;;;;;;5056443;28;19931;-76
2022/11/21 13:14:30;;;;;;;;;;;3.60;99.90;;;;;;5052640;28;19974;-76
2022/11/21 13:17:16;;;;;;;;;;;3.50;99.90;;;;;;5055130;28;19973;-75
2022/11/21 13:19:50;;;;;;;;;;;3.50;99.90;;;;;;5055014;28;19912;-76
2022/11/21 13:22:34;;;;;;;;;;;3.50;99.90;;;;;;5055829;28;19912;-76
2022/11/21 13:25:08;;;;;;;;;;;3.50;99.90;;;;;;5050419;28;19917;-76
2022/11/21 13:27:41;;;;;;;;;;;3.50;99.90;;;;;;5047786;28;19913;-76
2022/11/21 13:30:06;;;;;;;;;;;3.40;99.90;;;;;;5055312;28;19916;-76
2022/11/21 13:32:55;;;;;;;;;;;3.30;99.90;;;;;;5049989;28;20268;-76
2022/11/21 13:35:20;;;;;;;;;;;3.10;99.90;;;;;;5038866;28;20003;-76
2022/11/21 13:37:46;;;;;;;;;;;3.00;99.90;;;;;;5049348;28;20647;-77
2022/11/21 13:40:28;;;;;;;;;;;2.90;99.90;;;;;;5054119;28;19996;-76
2022/11/21 13:43:21;;;;;;;;;;;2.90;99.90;;;;;;5054397;28;20448;-77
2022/11/21 13:45:52;;;;;;;;;;;2.80;99.90;;;;;;5052327;28;19927;-76
2022/11/21 13:48:35;;;;;;;;;;;2.80;99.90;;;;;;5054170;28;19956;-76
2022/11/21 13:51:07;;;;;;;;;;;2.80;99.90;;;;;;5055466;28;19913;-76
2022/11/21 13:53:38;;;;;;;;;;;2.90;99.90;;;;;;5057024;28;20353;-76
2022/11/21 13:56:12;;;;;;;;;;;2.90;99.90;;;;;;5055423;28;19959;-76
2022/11/21 13:58:46;;;;;;;;;;;2.90;99.90;;;;;;5048450;28;19959;-75
2022/11/21 14:01:11;;;;;;;;;;;2.90;99.90;;;;;;5055493;28;20296;-76
2022/11/21 14:03:43;;;;;;;;;;;2.90;99.90;;;;;;5054045;28;19916;-76
2022/11/21 14:06:27;;;;;;;;;;;2.90;99.90;;;;;;5055312;28;19909;-76
2022/11/21 14:09:11;;;;;;;;;;;2.80;99.90;;;;;;5055155;28;19915;-76
2022/11/21 14:12:07;;;;;;;;;;;2.80;99.90;;;;;;5055134;28;19908;-76
2022/11/21 14:14:50;;;;;;;;;;;2.80;99.90;;;;;;5032389;28;19908;-76
2022/11/21 14:17:30;;;;;;;;;;;2.70;99.90;;;;;;5054904;28;19909;-76
2022/11/21 14:19:57;;;;;;;;;;;2.60;99.90;;;;;;5053656;28;20365;-76
2022/11/21 14:22:27;;;;;;;;;;;2.60;99.90;;;;;;5054950;28;19920;-75
2022/11/21 14:24:53;;;;;;;;;;;2.60;99.90;;;;;;5054758;28;19912;-76
2022/11/21 14:27:28;;;;;;;;;;;2.60;99.90;;;;;;5054801;28;20435;-76
2022/11/21 14:29:56;;;;;;;;;;;2.50;99.90;;;;;;5052444;28;21551;-76
2022/11/21 14:32:28;;;;;;;;;;;2.50;99.90;;;;;;5053232;28;19920;-76
2022/11/21 14:35:10;;;;;;;;;;;2.60;99.90;;;;;;5053220;28;19978;-76
2022/11/21 14:37:38;;;;;;;;;;;2.50;99.90;;;;;;5053242;28;19909;-75
2022/11/21 14:40:04;;;;;;;;;;;2.50;99.90;;;;;;5054328;28;19909;-75
2022/11/21 14:42:36;;;;;;;;;;;2.40;99.90;;;;;;5055043;28;19908;-76
2022/11/21 14:45:15;;;;;;;;;;;2.40;99.90;;;;;;5054843;28;19921;-76
2022/11/21 14:47:48;;;;;;;;;;;2.30;99.90;;;;;;5054880;28;19909;-76
2022/11/21 14:50:27;;;;;;;;;;;2.30;99.90;;;;;;5054487;28;20257;-77
2022/11/21 14:52:56;;;;;;;;;;;2.30;99.90;;;;;;5054323;28;19928;-75
2022/11/21 14:55:24;;;;;;;;;;;2.20;99.90;;;;;;5051973;28;19921;-76
2022/11/21 14:57:49;;;;;;;;;;;2.20;99.90;;;;;;5054178;28;20369;-75
2022/11/21 15:00:17;;;;;;;;;;;2.20;99.90;;;;;;5054212;28;20011;-76
2022/11/21 15:02:43;;;;;;;;;;;2.20;99.90;;;;;;5054043;28;19912;-75
2022/11/21 15:05:12;;;;;;;;;;;2.20;99.90;;;;;;5052610;28;19912;-76
2022/11/21 15:07:40;;;;;;;;;;;2.20;99.90;;;;;;5068696;28;19913;-75
2022/11/21 15:10:10;;;;;;;;;;;2.20;99.90;;;;;;5052423;28;19995;-76
2022/11/21 15:12:45;;;;;;;;;;;2.10;99.90;;;;;;5053926;28;20403;-75